Time;durP1;ratioP1;P1;durP2;ratioP2;P2;SDS_P1;SDS_P2;PMS_P1;PMS_P2;Temp;Humidity;BMP_temperature;BMP_pressure;BME280_temperature;BME280_humidity;BME280_pressure;Samples;Min_cycle;Max_cycle;Signal;HPM_P1;HPM_P2
2021/06/05 00:02:27;;;;;;;4.37;2.30;;;19.90;79.20;;;;;;5030654;28;20216;-76
2021/06/05 00:04:56;;;;;;;5.80;2.30;;;19.90;78.70;;;;;;5031515;28;20428;-76
2021/06/05 00:07:22;;;;;;;4.20;2.03;;;19.90;78.40;;;;;;5032104;28;20428;-76
2021/06/05 00:09:48;;;;;;;3.70;1.60;;;19.90;78.60;;;;;;5033110;28;20462;-77
2021/06/05 00:12:17;;;;;;;3.53;2.00;;;19.80;78.60;;;;;;5043854;28;20467;-77
2021/06/05 00:14:43;;;;;;;3.70;1.80;;;19.80;78.70;;;;;;5052749;28;20206;-74
2021/06/05 00:17:09;;;;;;;3.20;1.93;;;19.80;78.90;;;;;;5039795;28;20426;-77
2021/06/05 00:19:34;;;;;;;2.53;1.83;;;19.80;79.00;;;;;;5032261;28;20422;-78
2021/06/05 00:22:00;;;;;;;3.30;1.80;;;19.70;79.30;;;;;;5031846;28;20441;-75
2021/06/05 00:24:26;;;;;;;3.30;2.17;;;19.70;79.90;;;;;;5031398;28;20665;-77
2021/06/05 00:26:53;;;;;;;9.27;1.80;;;19.70;80.00;;;;;;5031667;28;20195;-75
2021/06/05 00:29:19;;;;;;;3.30;1.80;;;19.70;79.90;;;;;;5031994;28;20184;-77
2021/06/05 00:31:45;;;;;;;3.47;1.77;;;19.70;80.20;;;;;;5030856;28;20582;-75
2021/06/05 00:34:12;;;;;;;2.90;2.00;;;19.70;79.90;;;;;;5032010;28;20523;-77
2021/06/05 00:36:39;;;;;;;2.13;1.83;;;19.70;80.20;;;;;;5031638;28;20424;-75
2021/06/05 00:39:06;;;;;;;2.73;1.70;;;19.60;80.60;;;;;;5031886;28;20421;-77
2021/06/05 00:41:32;;;;;;;4.13;2.17;;;19.50;81.50;;;;;;5031560;28;20455;-77
2021/06/05 00:44:03;;;;;;;4.00;2.20;;;19.40;82.10;;;;;;5029477;28;20420;-77
2021/06/05 00:46:30;;;;;;;2.20;1.67;;;19.40;82.70;;;;;;5031165;28;20434;-75
2021/06/05 00:48:56;;;;;;;2.70;2.00;;;19.40;82.80;;;;;;5030805;28;20423;-77
2021/06/05 00:51:40;;;;;;;4.50;1.90;;;19.30;83.70;;;;;;5030947;28;20864;-77
2021/06/05 00:54:07;;;;;;;3.10;2.10;;;19.10;85.00;;;;;;5041996;28;20849;-76
2021/06/05 00:56:35;;;;;;;2.87;2.10;;;19.00;85.70;;;;;;5031063;28;20413;-75
2021/06/05 00:59:02;;;;;;;5.53;2.50;;;18.80;86.80;;;;;;5030727;28;20427;-76
2021/06/05 01:01:31;;;;;;;3.00;1.90;;;18.70;87.40;;;;;;5030576;28;20413;-76
2021/06/05 01:03:58;;;;;;;4.97;2.63;;;18.60;87.80;;;;;;5030996;28;20479;-75
2021/06/05 01:06:30;;;;;;;2.97;1.90;;;18.60;87.60;;;;;;5030836;28;20428;-75
2021/06/05 01:09:16;;;;;;;4.07;2.10;;;18.50;87.60;;;;;;5029337;28;20428;-75
2021/06/05 01:12:12;;;;;;;4.57;2.37;;;18.50;87.70;;;;;;5030404;28;20471;-76
2021/06/05 01:15:12;;;;;;;4.23;2.10;;;18.50;87.70;;;;;;5031290;28;20420;-74
2021/06/05 01:17:43;;;;;;;3.50;2.17;;;18.40;87.70;;;;;;5016555;28;20503;-75
2021/06/05 01:20:16;;;;;;;4.60;1.83;;;18.50;88.00;;;;;;5031183;28;20463;-75
2021/06/05 01:23:03;;;;;;;2.90;1.80;;;18.40;87.70;;;;;;5028817;28;20475;-74
2021/06/05 01:25:38;;;;;;;3.30;2.23;;;18.40;87.40;;;;;;5027277;28;20420;-76
2021/06/05 01:28:36;;;;;;;3.47;2.10;;;18.40;87.60;;;;;;5030409;28;20855;-76
2021/06/05 01:31:09;;;;;;;5.70;2.47;;;18.30;87.30;;;;;;4999816;28;20467;-77
2021/06/05 01:33:39;;;;;;;3.17;2.33;;;18.20;87.60;;;;;;5028520;28;20435;-77
2021/06/05 01:36:06;;;;;;;5.23;1.97;;;18.20;87.80;;;;;;5030711;28;20500;-76
2021/06/05 01:38:37;;;;;;;4.63;2.00;;;18.20;88.00;;;;;;5029196;28;21013;-75
2021/06/05 01:41:05;;;;;;;3.67;1.67;;;18.20;87.30;;;;;;5029667;28;20413;-77
2021/06/05 01:43:31;;;;;;;4.83;2.00;;;18.30;86.80;;;;;;5031557;28;20444;-77
2021/06/05 01:45:59;;;;;;;3.40;2.00;;;18.30;86.20;;;;;;5030997;28;20508;-78
2021/06/05 01:48:25;;;;;;;2.13;1.60;;;18.40;85.50;;;;;;5030569;28;20416;-76
2021/06/05 01:50:51;;;;;;;3.83;1.70;;;18.40;85.20;;;;;;5031895;28;20473;-77
2021/06/05 01:53:25;;;;;;;2.23;1.50;;;18.50;84.90;;;;;;5039795;28;20439;-77
2021/06/05 01:56:12;;;;;;;3.23;1.60;;;18.50;84.00;;;;;;5047352;28;20465;-76
2021/06/05 01:58:41;;;;;;;3.50;1.67;;;18.50;84.10;;;;;;5036607;28;20415;-76
2021/06/05 02:01:07;;;;;;;2.50;1.67;;;18.60;84.00;;;;;;5030371;28;20419;-75
2021/06/05 02:03:33;;;;;;;3.20;1.80;;;18.60;84.30;;;;;;5031041;28;20441;-75
2021/06/05 02:05:59;;;;;;;2.73;1.57;;;18.60;84.30;;;;;;5030546;28;20417;-75
2021/06/05 02:08:27;;;;;;;2.90;1.73;;;18.60;84.00;;;;;;5030808;28;20186;-76
2021/06/05 02:10:59;;;;;;;4.60;2.00;;;18.60;83.70;;;;;;5029809;28;20301;-77
2021/06/05 02:13:33;;;;;;;3.63;1.70;;;18.60;84.00;;;;;;5030655;28;20466;-76
2021/06/05 02:16:04;;;;;;;2.83;1.80;;;18.60;84.00;;;;;;5029583;28;20472;-77
2021/06/05 02:18:35;;;;;;;4.53;2.30;;;18.60;84.10;;;;;;5031344;28;20424;-77
2021/06/05 02:21:16;;;;;;;3.03;1.73;;;18.60;84.30;;;;;;5029922;28;21246;-76
2021/06/05 02:24:13;;;;;;;1.80;1.30;;;18.50;84.90;;;;;;5030334;28;20454;-75
2021/06/05 02:26:41;;;;;;;5.27;1.80;;;18.50;85.20;;;;;;5028192;28;20857;-75
2021/06/05 02:29:10;;;;;;;6.80;1.83;;;18.50;85.20;;;;;;5030047;28;20466;-75
2021/06/05 02:31:38;;;;;;;1.40;1.20;;;18.50;85.50;;;;;;5029749;28;20479;-76
2021/06/05 02:34:11;;;;;;;3.67;1.70;;;18.50;85.60;;;;;;5029211;28;20497;-76
2021/06/05 02:36:42;;;;;;;3.07;1.80;;;18.50;85.60;;;;;;5029920;28;20452;-77
2021/06/05 02:39:13;;;;;;;2.00;1.57;;;18.40;85.70;;;;;;5030847;28;20411;-76
2021/06/05 02:41:42;;;;;;;2.37;1.53;;;18.50;86.00;;;;;;5029308;28;20789;-76
2021/06/05 02:44:09;;;;;;;4.23;2.00;;;18.40;86.30;;;;;;5029046;28;20423;-78
2021/06/05 02:46:38;;;;;;;2.87;1.80;;;18.40;86.60;;;;;;5029909;28;20504;-77
2021/06/05 02:49:26;;;;;;;2.00;1.80;;;18.50;86.50;;;;;;5029909;28;20422;-76
2021/06/05 02:52:00;;;;;;;3.57;1.70;;;18.50;86.60;;;;;;5030214;28;20487;-76
2021/06/05 02:54:27;;;;;;;4.83;1.97;;;18.50;85.90;;;;;;5034289;28;20929;-77
2021/06/05 02:56:53;;;;;;;3.37;1.60;;;18.50;86.20;;;;;;5038520;28;20431;-76
2021/06/05 02:59:21;;;;;;;3.07;1.80;;;18.50;86.50;;;;;;5035892;28;20503;-76
2021/06/05 03:01:47;;;;;;;3.20;1.40;;;18.50;85.60;;;;;;5038019;28;20451;-75
2021/06/05 03:04:14;;;;;;;3.80;1.80;;;18.50;85.50;;;;;;5037290;28;20424;-74
2021/06/05 03:06:40;;;;;;;2.37;1.73;;;18.50;85.30;;;;;;5037657;28;20428;-77
2021/06/05 03:09:08;;;;;;;3.47;1.77;;;18.50;85.20;;;;;;5041422;28;20518;-76
2021/06/05 03:11:35;;;;;;;4.07;1.90;;;18.60;85.60;;;;;;5052377;28;20467;-76
2021/06/05 03:14:02;;;;;;;4.80;2.40;;;18.60;85.70;;;;;;5046096;28;20421;-75
2021/06/05 03:16:28;;;;;;;2.47;1.30;;;18.60;85.70;;;;;;5033905;28;20964;-76
2021/06/05 03:18:55;;;;;;;1.93;1.90;;;18.70;85.60;;;;;;5032431;28;20448;-76
2021/06/05 03:21:21;;;;;;;3.00;1.67;;;18.70;84.00;;;;;;5039782;28;20478;-76
2021/06/05 03:23:48;;;;;;;2.90;2.00;;;18.80;84.40;;;;;;5035621;28;20447;-76
2021/06/05 03:26:16;;;;;;;3.57;2.00;;;18.80;84.30;;;;;;5031864;28;20436;-76
2021/06/05 03:28:42;;;;;;;2.20;1.90;;;18.80;84.40;;;;;;5032335;28;20526;-77
2021/06/05 03:31:10;;;;;;;2.77;2.00;;;18.80;84.00;;;;;;5034121;28;20971;-77
2021/06/05 03:33:36;;;;;;;8.70;1.90;;;18.80;84.60;;;;;;5033124;28;20461;-76
2021/06/05 03:36:04;;;;;;;3.00;1.77;;;18.90;84.90;;;;;;5032135;28;20432;-77
2021/06/05 03:38:31;;;;;;;4.47;1.97;;;18.90;83.10;;;;;;5029943;28;20435;-76
2021/06/05 03:40:57;;;;;;;5.50;2.20;;;18.90;83.30;;;;;;5033772;28;20434;-77
2021/06/05 03:43:23;;;;;;;6.17;2.07;;;19.00;83.30;;;;;;5033639;28;20460;-77
2021/06/05 03:45:50;;;;;;;4.10;1.80;;;18.90;83.60;;;;;;5033519;28;20437;-76
2021/06/05 03:48:16;;;;;;;2.50;1.80;;;19.00;84.00;;;;;;5027460;28;20451;-76
2021/06/05 03:50:46;;;;;;;7.37;2.20;;;19.10;83.80;;;;;;5033344;28;20425;-77
2021/06/05 03:53:13;;;;;;;3.60;1.60;;;19.10;83.80;;;;;;5033281;28;21019;-76
2021/06/05 03:55:39;;;;;;;4.13;1.80;;;19.20;83.80;;;;;;5034173;28;20414;-78
2021/06/05 03:58:06;;;;;;;4.17;2.00;;;19.20;83.70;;;;;;5032738;28;20444;-77
2021/06/05 04:00:35;;;;;;;2.17;1.70;;;19.20;83.80;;;;;;5033161;28;20532;-76
2021/06/05 04:03:02;;;;;;;4.27;2.20;;;19.10;83.70;;;;;;5024856;28;20432;-76
2021/06/05 04:05:32;;;;;;;2.63;2.10;;;19.10;83.70;;;;;;5032799;28;20424;-75
2021/06/05 04:07:58;;;;;;;2.80;1.97;;;19.10;83.30;;;;;;5024033;28;20414;-75
2021/06/05 04:10:25;;;;;;;3.90;2.10;;;19.10;83.10;;;;;;5032651;28;20521;-75
2021/06/05 04:12:53;;;;;;;5.80;2.30;;;19.00;83.80;;;;;;5030957;28;20520;-75
2021/06/05 04:15:21;;;;;;;2.90;1.90;;;18.90;84.40;;;;;;5031822;28;20964;-76
2021/06/05 04:17:46;;;;;;;7.23;2.17;;;18.90;85.60;;;;;;5032338;28;20985;-76
2021/06/05 04:20:16;;;;;;;2.27;1.70;;;18.90;85.90;;;;;;5032564;28;20424;-75
2021/06/05 04:22:42;;;;;;;3.37;1.70;;;19.00;86.50;;;;;;5031719;28;20252;-76
2021/06/05 04:25:10;;;;;;;5.03;1.90;;;19.00;85.90;;;;;;5032589;28;20417;-77
2021/06/05 04:27:36;;;;;;;5.63;1.90;;;19.00;85.70;;;;;;5031450;28;20429;-75
2021/06/05 04:30:03;;;;;;;2.60;1.53;;;19.00;86.00;;;;;;5032867;28;20441;-77
2021/06/05 04:32:29;;;;;;;1.70;1.70;;;19.00;86.20;;;;;;5031536;28;20469;-78
2021/06/05 04:34:55;;;;;;;3.10;1.60;;;18.90;86.30;;;;;;5032398;28;20422;-77
2021/06/05 04:37:20;;;;;;;5.50;2.20;;;18.90;86.50;;;;;;5032002;28;20177;-78
2021/06/05 04:39:46;;;;;;;2.30;1.83;;;18.90;86.80;;;;;;5032175;28;20682;-76
2021/06/05 04:42:12;;;;;;;6.10;1.90;;;18.90;86.80;;;;;;5032038;28;20209;-74
2021/06/05 04:44:37;;;;;;;2.67;1.77;;;18.80;86.60;;;;;;5032488;28;20430;-77
2021/06/05 04:47:04;;;;;;;3.40;1.90;;;18.80;86.50;;;;;;5025906;28;20272;-76
2021/06/05 04:49:29;;;;;;;4.33;2.20;;;18.70;86.90;;;;;;5035198;28;20195;-77
2021/06/05 04:51:55;;;;;;;4.83;1.90;;;18.80;86.90;;;;;;5039447;28;20477;-77
2021/06/05 04:54:21;;;;;;;4.73;2.17;;;18.70;87.30;;;;;;5039531;28;20944;-77
2021/06/05 04:56:49;;;;;;;4.80;1.50;;;18.80;87.40;;;;;;5038981;28;20189;-78
2021/06/05 04:59:18;;;;;;;4.10;2.00;;;18.80;87.60;;;;;;5031775;28;20560;-76
2021/06/05 05:01:43;;;;;;;4.03;1.77;;;18.80;87.40;;;;;;5030839;28;20444;-75
2021/06/05 05:04:09;;;;;;;4.20;1.97;;;18.90;87.30;;;;;;5031799;28;20960;-77
2021/06/05 05:06:36;;;;;;;3.70;1.70;;;18.90;86.90;;;;;;5029656;28;20457;-78
2021/06/05 05:09:04;;;;;;;7.43;1.63;;;19.00;86.90;;;;;;5031666;28;20483;-77
2021/06/05 05:11:29;;;;;;;2.70;1.80;;;19.00;86.90;;;;;;5030828;28;20500;-77
2021/06/05 05:13:55;;;;;;;5.23;1.90;;;19.00;87.10;;;;;;5031699;28;20463;-78
2021/06/05 05:16:22;;;;;;;2.40;1.70;;;19.00;86.50;;;;;;5032903;28;20601;-77
2021/06/05 05:18:48;;;;;;;3.33;1.70;;;19.10;86.00;;;;;;5031781;28;20190;-76
2021/06/05 05:21:18;;;;;;;3.83;2.33;;;19.00;86.20;;;;;;5031516;28;20939;-76
2021/06/05 05:23:44;;;;;;;3.77;1.80;;;19.00;85.20;;;;;;5032299;28;20522;-76
2021/06/05 05:26:11;;;;;;;7.27;2.10;;;18.90;85.90;;;;;;5031738;28;20519;-77
2021/06/05 05:28:38;;;;;;;3.70;1.97;;;18.90;86.20;;;;;;5029963;28;20657;-77
2021/06/05 05:31:12;;;;;;;4.13;1.93;;;18.90;86.30;;;;;;5030682;28;20560;-75
2021/06/05 05:33:39;;;;;;;2.30;1.57;;;18.90;86.20;;;;;;5029282;28;20506;-76
2021/06/05 05:36:12;;;;;;;3.00;1.70;;;18.80;86.00;;;;;;5031520;28;20441;-77
2021/06/05 05:38:38;;;;;;;2.20;1.70;;;18.90;85.30;;;;;;5032670;28;20919;-77
2021/06/05 05:41:09;;;;;;;4.80;2.07;;;18.90;85.20;;;;;;5037417;28;20462;-77
2021/06/05 05:43:35;;;;;;;2.73;1.63;;;18.90;85.50;;;;;;5033941;28;20534;-77
2021/06/05 05:46:04;;;;;;;2.53;1.70;;;19.00;85.60;;;;;;5032334;28;20557;-78
2021/06/05 05:48:33;;;;;;;2.90;2.00;;;19.10;84.90;;;;;;5032749;28;20512;-77
2021/06/05 05:50:59;;;;;;;2.60;1.93;;;19.10;84.30;;;;;;5032880;28;20478;-77
2021/06/05 05:53:25;;;;;;;2.90;1.90;;;19.10;84.40;;;;;;5033285;28;20443;-76
2021/06/05 05:55:51;;;;;;;3.70;1.80;;;19.20;84.00;;;;;;5031921;28;20189;-77
2021/06/05 05:58:20;;;;;;;3.07;2.00;;;19.40;83.40;;;;;;5029538;28;20427;-78
2021/06/05 06:00:47;;;;;;;3.70;1.87;;;19.50;83.30;;;;;;5029234;28;20189;-76
2021/06/05 06:03:14;;;;;;;3.83;1.90;;;19.70;83.00;;;;;;5031986;28;20805;-77
2021/06/05 06:05:40;;;;;;;4.17;2.23;;;19.80;83.40;;;;;;5031843;28;20424;-78
2021/06/05 06:08:08;;;;;;;6.40;3.13;;;19.90;83.00;;;;;;5030378;28;20464;-76
2021/06/05 06:10:34;;;;;;;4.93;2.50;;;20.10;82.20;;;;;;5031353;28;20431;-76
2021/06/05 06:13:00;;;;;;;4.70;2.00;;;20.20;81.90;;;;;;5034470;28;20428;-78
2021/06/05 06:15:28;;;;;;;5.83;2.10;;;20.00;82.40;;;;;;5034002;28;20446;-78
2021/06/05 06:17:54;;;;;;;3.70;2.53;;;20.10;82.40;;;;;;5037507;28;20976;-80
2021/06/05 06:20:29;;;;;;;6.40;2.03;;;20.00;81.70;;;;;;5041025;28;20424;-79
2021/06/05 06:22:55;;;;;;;3.00;1.50;;;20.00;80.80;;;;;;5035384;28;20474;-77
2021/06/05 06:25:25;;;;;;;3.30;1.60;;;19.70;81.80;;;;;;5034986;28;20422;-77
2021/06/05 06:27:51;;;;;;;4.27;1.97;;;19.70;81.80;;;;;;5035176;28;20429;-76
2021/06/05 06:30:23;;;;;;;3.03;2.23;;;19.70;82.70;;;;;;5036456;28;20769;-77
2021/06/05 06:32:52;;;;;;;5.53;2.20;;;19.80;82.10;;;;;;5032114;28;20234;-77
2021/06/05 06:35:31;;;;;;;2.40;1.80;;;19.90;81.90;;;;;;5036716;28;20420;-79
2021/06/05 06:37:57;;;;;;;3.10;1.70;;;19.70;83.10;;;;;;5034370;28;20840;-77
2021/06/05 06:40:28;;;;;;;2.47;2.00;;;19.70;83.60;;;;;;5035367;28;20433;-76
2021/06/05 06:42:54;;;;;;;3.43;2.13;;;19.70;83.70;;;;;;5037784;28;20429;-76
2021/06/05 06:45:20;;;;;;;3.30;2.03;;;19.80;83.30;;;;;;5038329;28;20570;-74
2021/06/05 06:47:45;;;;;;;2.50;1.80;;;19.90;83.00;;;;;;5035313;28;20200;-73
2021/06/05 06:50:14;;;;;;;4.93;2.10;;;20.10;81.90;;;;;;5039057;28;20420;-71
2021/06/05 06:52:40;;;;;;;3.20;1.90;;;20.20;81.90;;;;;;5038274;28;20219;-72
2021/06/05 06:55:07;;;;;;;3.40;2.10;;;20.40;82.10;;;;;;5037068;28;20411;-73
2021/06/05 06:57:33;;;;;;;3.37;2.00;;;20.60;80.90;;;;;;5036893;28;20447;-72
2021/06/05 06:59:59;;;;;;;4.07;2.10;;;20.80;79.30;;;;;;5038513;28;20431;-74
2021/06/05 07:02:25;;;;;;;4.07;1.97;;;20.80;78.70;;;;;;5036998;28;20444;-73
2021/06/05 07:04:51;;;;;;;3.30;1.90;;;20.70;79.00;;;;;;5033757;28;20193;-74
2021/06/05 07:07:18;;;;;;;3.00;1.83;;;20.60;79.60;;;;;;5032253;28;20189;-72
2021/06/05 07:09:44;;;;;;;4.10;2.27;;;20.60;79.60;;;;;;5033628;28;20422;-72
2021/06/05 07:12:12;;;;;;;2.83;1.60;;;20.70;79.20;;;;;;5032701;28;20485;-72
2021/06/05 07:14:38;;;;;;;4.60;2.10;;;20.80;78.70;;;;;;5033674;28;20438;-74
2021/06/05 07:17:03;;;;;;;2.63;2.17;;;20.90;78.60;;;;;;5032586;28;20982;-75
2021/06/05 07:19:29;;;;;;;2.50;2.00;;;20.90;78.10;;;;;;5033140;28;20690;-71
2021/06/05 07:21:55;;;;;;;4.10;1.93;;;21.10;77.80;;;;;;5031943;28;20527;-72
2021/06/05 07:24:21;;;;;;;3.10;1.67;;;21.20;77.10;;;;;;5031071;28;20570;-77
2021/06/05 07:26:46;;;;;;;3.87;2.00;;;21.30;76.80;;;;;;5032214;28;20188;-73
2021/06/05 07:29:12;;;;;;;2.63;1.43;;;21.30;76.50;;;;;;5032594;28;20569;-71
2021/06/05 07:31:50;;;;;;;2.47;1.60;;;21.10;76.40;;;;;;5032259;28;20211;-72
2021/06/05 07:34:26;;;;;;;2.77;1.60;;;21.10;77.00;;;;;;5032905;28;20448;-73
2021/06/05 07:36:56;;;;;;;3.93;2.13;;;21.30;76.50;;;;;;5026220;28;20497;-73
2021/06/05 07:39:26;;;;;;;4.17;1.97;;;21.50;75.90;;;;;;5032650;28;20466;-72
2021/06/05 07:41:52;;;;;;;5.20;2.00;;;21.80;75.20;;;;;;5031491;28;20457;-71
2021/06/05 07:44:19;;;;;;;2.77;2.13;;;22.00;74.90;;;;;;5032290;28;20413;-73
2021/06/05 07:46:49;;;;;;;3.07;1.97;;;22.10;73.30;;;;;;5033439;28;20450;-71
2021/06/05 07:49:15;;;;;;;2.97;2.10;;;22.00;72.10;;;;;;5034186;28;20414;-73
2021/06/05 07:51:41;;;;;;;4.60;2.20;;;22.20;72.10;;;;;;5033455;28;21186;-72
2021/06/05 07:54:08;;;;;;;2.97;2.50;;;22.30;70.50;;;;;;5038577;28;20422;-73
2021/06/05 07:56:34;;;;;;;4.77;2.87;;;22.40;69.80;;;;;;5035935;28;20956;-72
2021/06/05 07:59:00;;;;;;;5.30;2.60;;;22.60;69.20;;;;;;5045254;28;20425;-72
2021/06/05 08:01:27;;;;;;;7.40;2.63;;;22.60;69.40;;;;;;5044649;28;20431;-74
2021/06/05 08:03:52;;;;;;;4.83;2.10;;;22.60;68.00;;;;;;5053592;28;20266;-71
2021/06/05 08:06:18;;;;;;;3.20;2.50;;;22.30;69.40;;;;;;5055518;28;20607;-72
2021/06/05 08:08:46;;;;;;;4.83;2.70;;;22.10;71.60;;;;;;5037519;28;20831;-72
2021/06/05 08:11:12;;;;;;;3.43;2.77;;;22.00;72.60;;;;;;5030261;28;20249;-71
2021/06/05 08:13:38;;;;;;;3.63;2.60;;;21.70;73.20;;;;;;5032350;28;20535;-72
2021/06/05 08:16:05;;;;;;;3.67;2.73;;;21.80;73.70;;;;;;5032101;28;20525;-74
2021/06/05 08:18:31;;;;;;;3.97;2.63;;;21.90;73.50;;;;;;5030780;28;20436;-72
2021/06/05 08:21:00;;;;;;;4.27;2.47;;;22.20;72.30;;;;;;5031630;28;20426;-72
2021/06/05 08:23:29;;;;;;;4.17;2.10;;;22.20;71.80;;;;;;5032055;28;20459;-74
2021/06/05 08:25:56;;;;;;;4.53;2.47;;;22.00;72.10;;;;;;5027646;28;20420;-74
2021/06/05 08:28:24;;;;;;;4.20;2.50;;;22.10;72.60;;;;;;5032103;28;20430;-72
2021/06/05 08:30:52;;;;;;;5.13;2.40;;;22.30;72.10;;;;;;5031787;28;20427;-74
2021/06/05 08:33:18;;;;;;;2.87;2.40;;;22.30;72.00;;;;;;5032469;28;20535;-73
2021/06/05 08:35:44;;;;;;;6.30;2.20;;;22.10;72.40;;;;;;5031742;28;20423;-73
2021/06/05 08:38:12;;;;;;;3.83;2.20;;;22.00;73.70;;;;;;5031745;28;20795;-73
2021/06/05 08:40:41;;;;;;;3.07;2.10;;;22.20;73.50;;;;;;5030332;28;20439;-73
2021/06/05 08:43:08;;;;;;;5.97;3.20;;;22.30;73.70;;;;;;5031913;28;20470;-73
2021/06/05 08:45:43;;;;;;;4.20;2.40;;;22.40;73.00;;;;;;5034624;28;20527;-72
2021/06/05 08:48:15;;;;;;;2.93;2.10;;;22.50;72.90;;;;;;5035656;28;20430;-75
2021/06/05 08:51:05;;;;;;;4.10;1.87;;;22.30;74.50;;;;;;5033678;28;20507;-75
2021/06/05 08:53:37;;;;;;;3.50;2.10;;;22.10;75.50;;;;;;5033036;28;20468;-76
2021/06/05 08:56:08;;;;;;;4.57;2.50;;;21.70;77.40;;;;;;5036124;28;20437;-76
2021/06/05 08:58:40;;;;;;;4.00;2.60;;;21.70;77.70;;;;;;5033976;28;20487;-75
2021/06/05 09:01:10;;;;;;;3.70;3.40;;;21.60;78.00;;;;;;5031359;28;20465;-75
2021/06/05 09:03:38;;;;;;;4.70;2.40;;;21.60;76.80;;;;;;5029872;28;20531;-75
2021/06/05 09:06:43;;;;;;;4.53;2.80;;;21.40;78.00;;;;;;5030350;28;20960;-75
2021/06/05 09:09:15;;;;;;;3.10;2.10;;;21.40;78.70;;;;;;5020537;28;20428;-75
2021/06/05 09:11:41;;;;;;;5.00;2.23;;;21.50;77.80;;;;;;5031458;28;20512;-76
2021/06/05 09:14:07;;;;;;;3.67;2.13;;;21.40;77.70;;;;;;5028499;28;20484;-75
2021/06/05 09:16:34;;;;;;;5.47;2.50;;;21.30;78.10;;;;;;5031407;28;20241;-77
2021/06/05 09:19:28;;;;;;;5.73;2.60;;;21.30;78.60;;;;;;5032271;28;20190;-76
2021/06/05 09:22:17;;;;;;;3.23;2.23;;;21.50;78.60;;;;;;5019975;28;20483;-76
2021/06/05 09:24:54;;;;;;;3.13;2.40;;;21.90;77.40;;;;;;5032601;28;20468;-76
2021/06/05 09:27:24;;;;;;;2.30;2.10;;;22.10;76.10;;;;;;5031437;28;20425;-76
2021/06/05 09:29:58;;;;;;;4.40;2.13;;;22.30;75.20;;;;;;5031527;28;20431;-77
2021/06/05 09:32:29;;;;;;;3.73;2.30;;;22.40;74.90;;;;;;5028104;28;20470;-76
2021/06/05 09:35:29;;;;;;;2.63;1.80;;;22.50;74.50;;;;;;5031449;28;20437;-76
2021/06/05 09:38:16;;;;;;;4.07;2.30;;;22.60;74.20;;;;;;4972038;28;20910;-76
2021/06/05 09:41:03;;;;;;;3.30;2.23;;;22.50;74.80;;;;;;4954009;28;20568;-77
2021/06/05 09:43:30;;;;;;;6.77;3.20;;;22.40;74.80;;;;;;4967704;28;20449;-76
2021/06/05 09:46:28;;;;;;;6.43;3.10;;;22.30;75.40;;;;;;4969368;28;20429;-75
2021/06/05 09:49:17;;;;;;;4.30;3.20;;;22.00;76.70;;;;;;4953196;28;20464;-76
2021/06/05 09:52:04;;;;;;;4.13;2.80;;;21.70;78.40;;;;;;4970163;28;20508;-75
2021/06/05 09:54:32;;;;;;;7.40;2.97;;;21.60;78.70;;;;;;4970324;28;20520;-77
2021/06/05 09:57:24;;;;;;;5.73;2.80;;;21.50;79.60;;;;;;4970289;28;20429;-76
2021/06/05 10:00:14;;;;;;;2.20;2.10;;;21.20;81.70;;;;;;4896752;29;20433;-76
2021/06/05 10:02:43;;;;;;;3.40;2.53;;;21.20;81.50;;;;;;4911823;29;20519;-76
2021/06/05 10:05:33;;;;;;;5.27;2.63;;;21.30;81.70;;;;;;4912387;29;20495;-75
2021/06/05 10:08:22;;;;;;;3.50;2.20;;;21.20;82.20;;;;;;4912760;29;20918;-77
2021/06/05 10:10:52;;;;;;;2.97;2.10;;;21.40;82.50;;;;;;4912015;29;20428;-76
2021/06/05 10:13:26;;;;;;;4.57;2.80;;;21.90;80.80;;;;;;4900971;29;20447;-77
2021/06/05 10:15:57;;;;;;;3.30;2.33;;;21.90;79.90;;;;;;4946575;28;21259;-77
2021/06/05 10:18:46;;;;;;;2.80;2.20;;;21.80;80.00;;;;;;4951157;29;20548;-75
2021/06/05 10:21:36;;;;;;;5.73;2.20;;;22.10;78.60;;;;;;4950347;29;20935;-77
2021/06/05 10:24:24;;;;;;;5.07;2.40;;;22.10;77.80;;;;;;4946315;29;20476;-76
2021/06/05 10:26:52;;;;;;;3.63;2.50;;;21.90;78.90;;;;;;4935578;29;20581;-77
2021/06/05 10:29:33;;;;;;;3.70;2.57;;;22.20;78.90;;;;;;4950547;29;20438;-75
2021/06/05 10:32:04;;;;;;;4.47;2.40;;;22.40;77.60;;;;;;4928418;29;20477;-79
2021/06/05 10:34:40;;;;;;;3.07;2.60;;;22.40;78.70;;;;;;4953901;29;20424;-76
2021/06/05 10:37:09;;;;;;;2.80;2.10;;;22.80;76.80;;;;;;5009110;28;20438;-75
2021/06/05 10:39:39;;;;;;;7.03;2.80;;;23.10;75.70;;;;;;5033621;28;20427;-76
2021/06/05 10:42:12;;;;;;;2.93;2.30;;;23.30;75.40;;;;;;5034632;28;20545;-77
2021/06/05 10:44:39;;;;;;;3.77;2.40;;;23.30;75.10;;;;;;5031851;28;20469;-74
2021/06/05 10:47:42;;;;;;;4.10;2.70;;;23.30;74.00;;;;;;5032008;28;20435;-77
2021/06/05 10:50:36;;;;;;;4.07;2.30;;;23.00;76.50;;;;;;4961107;28;20960;-76
2021/06/05 10:53:26;;;;;;;4.67;2.33;;;22.70;79.30;;;;;;4977808;28;20484;-76
2021/06/05 10:56:01;;;;;;;3.87;2.80;;;22.50;79.30;;;;;;4985262;28;20487;-76
2021/06/05 10:58:52;;;;;;;3.27;2.13;;;21.80;81.90;;;;;;4976917;28;20428;-76
2021/06/05 11:01:38;;;;;;;2.67;2.10;;;21.20;83.30;;;;;;4968772;28;20435;-75
2021/06/05 11:04:33;;;;;;;3.83;2.30;;;21.10;86.20;;;;;;4968198;28;20454;-75
2021/06/05 11:07:02;;;;;;;4.40;2.40;;;21.20;86.30;;;;;;4962045;28;20468;-77
2021/06/05 11:09:47;;;;;;;4.10;2.60;;;21.10;87.30;;;;;;4968702;28;20428;-76
2021/06/05 11:12:13;;;;;;;4.50;2.53;;;21.20;86.20;;;;;;4967868;28;20571;-75
2021/06/05 11:14:42;;;;;;;2.80;2.10;;;21.50;85.00;;;;;;4967955;28;20916;-76
2021/06/05 11:17:27;;;;;;;3.50;2.53;;;21.70;82.70;;;;;;4968484;28;20202;-77
2021/06/05 11:20:02;;;;;;;4.40;2.63;;;21.90;83.40;;;;;;4968648;28;20421;-75
2021/06/05 11:22:47;;;;;;;4.00;2.50;;;22.20;83.80;;;;;;4951339;28;20483;-77
2021/06/05 11:25:16;;;;;;;7.10;2.40;;;22.50;81.70;;;;;;5022128;28;20899;-77
2021/06/05 11:27:41;;;;;;;3.43;2.60;;;22.40;79.50;;;;;;5030367;28;20534;-76
2021/06/05 11:30:07;;;;;;;3.57;2.40;;;22.20;80.90;;;;;;5033780;28;20451;-77
2021/06/05 11:32:56;;;;;;;4.97;2.70;;;22.20;81.10;;;;;;5032049;28;20285;-77
2021/06/05 11:35:28;;;;;;;2.90;2.10;;;22.20;81.50;;;;;;5032819;28;20521;-76
2021/06/05 11:37:56;;;;;;;2.83;2.27;;;22.50;79.50;;;;;;5032879;28;20870;-77
2021/06/05 11:40:47;;;;;;;4.53;2.27;;;22.50;78.40;;;;;;5033220;28;20429;-76
2021/06/05 11:44:00;;;;;;;3.40;2.50;;;22.60;78.00;;;;;;5033121;28;20438;-77
2021/06/05 11:46:31;;;;;;;2.63;2.17;;;22.80;74.80;;;;;;5028996;28;20469;-76
2021/06/05 11:49:01;;;;;;;2.50;2.27;;;22.50;77.00;;;;;;5033362;28;20422;-77
2021/06/05 11:51:34;;;;;;;3.00;2.10;;;22.70;73.60;;;;;;5032441;28;20524;-76
2021/06/05 11:54:13;;;;;;;3.47;2.20;;;23.10;72.70;;;;;;5023333;28;20430;-77
2021/06/05 11:57:09;;;;;;;3.87;2.20;;;23.40;73.50;;;;;;5031437;28;20437;-75
2021/06/05 11:59:41;;;;;;;2.60;1.93;;;23.30;72.30;;;;;;5029434;28;20438;-76
2021/06/05 12:02:31;;;;;;;2.80;1.80;;;23.50;71.70;;;;;;5032146;28;20475;-75
2021/06/05 12:05:04;;;;;;;2.70;1.83;;;23.50;70.20;;;;;;5030344;28;20419;-76
2021/06/05 12:07:42;;;;;;;3.23;2.13;;;23.30;71.00;;;;;;5032400;28;20431;-74
2021/06/05 12:10:13;;;;;;;4.30;2.27;;;22.90;72.90;;;;;;5032405;28;20787;-76
2021/06/05 12:12:45;;;;;;;5.23;2.20;;;22.80;74.00;;;;;;5031637;28;20560;-77
2021/06/05 12:15:25;;;;;;;3.43;2.07;;;22.80;74.00;;;;;;5031639;28;20435;-75
2021/06/05 12:17:56;;;;;;;4.80;1.93;;;22.90;73.50;;;;;;5032221;28;20419;-76
2021/06/05 12:20:29;;;;;;;4.67;2.60;;;22.90;74.60;;;;;;5032301;28;20837;-76
2021/06/05 12:23:12;;;;;;;4.37;2.67;;;23.20;73.00;;;;;;5029981;28;20948;-75
2021/06/05 12:25:43;;;;;;;3.30;2.23;;;23.30;73.00;;;;;;5032037;28;20432;-75
2021/06/05 12:28:30;;;;;;;4.43;2.43;;;23.00;73.70;;;;;;5032474;28;20414;-76
2021/06/05 12:31:10;;;;;;;2.90;2.30;;;22.90;74.80;;;;;;5030770;28;20430;-76
2021/06/05 12:33:37;;;;;;;3.33;2.60;;;22.90;75.20;;;;;;5031421;28;20573;-77
2021/06/05 12:36:22;;;;;;;2.90;2.13;;;22.90;75.70;;;;;;5031355;28;20427;-75
2021/06/05 12:38:50;;;;;;;3.83;2.80;;;23.20;74.60;;;;;;5031315;28;20755;-74
2021/06/05 12:41:27;;;;;;;3.63;2.50;;;23.30;73.90;;;;;;5031038;28;20486;-76
2021/06/05 12:43:54;;;;;;;4.50;2.43;;;23.10;74.20;;;;;;5029406;28;20447;-75
2021/06/05 12:46:33;;;;;;;4.53;2.80;;;23.20;74.90;;;;;;5030454;28;20770;-77
2021/06/05 12:49:06;;;;;;;3.17;2.30;;;23.20;74.80;;;;;;5023704;28;20434;-76
2021/06/05 12:51:48;;;;;;;2.40;2.00;;;23.40;73.50;;;;;;5031121;28;20832;-76
2021/06/05 12:54:26;;;;;;;2.67;1.93;;;23.60;71.60;;;;;;5025085;28;20555;-77
2021/06/05 12:56:53;;;;;;;4.83;2.23;;;23.50;71.30;;;;;;5031211;28;20925;-75
2021/06/05 12:59:36;;;;;;;2.20;1.73;;;23.40;72.90;;;;;;5035045;28;20502;-75
2021/06/05 13:02:26;;;;;;;3.60;1.63;;;24.00;69.50;;;;;;5037016;28;20461;-74
2021/06/05 13:04:52;;;;;;;2.17;1.70;;;24.20;66.70;;;;;;5031398;28;20630;-75
2021/06/05 13:07:37;;;;;;;3.77;1.73;;;24.70;66.60;;;;;;5030767;28;20425;-76
2021/06/05 13:10:27;;;;;;;2.33;1.77;;;25.40;64.50;;;;;;5024891;28;20418;-75
2021/06/05 13:13:28;;;;;;;3.23;1.87;;;25.90;62.00;;;;;;5031175;28;20855;-75